»·PEaware :: SWA1295 KPHX-KSAN

SWA1295 :: KPHX-KSAN

FLIGHT INFORMATION

Flight Status: Arrived
Operator:
Southwest Airlines
More flights by this operator :: More flights under this callsign
Pilot: Luis Carlos C. (28559)
Aircraft: BOEING 737-800
(B738)
More flights by this aircraft type
Origin: KPHX Phoenix Sky Harbor Intl
United States
Destination: KSAN San Diego Intl-Lindbergh
United States
More flights between these airports :: More routes between these airports
Route: +FYRBD1 MOHAK J2 CBOLA HOGGZ LUCKI1
File this flight plan on PilotEdge
Remarks:
Altitude:
(Current/Filed)
32,000ft
Speed:
(Current/Filed)
450kts
Departed: 04-May-20 05:00 PM
Arrived: 04-May-20 05:50 PM
Distance/Time
Traveled:
264nm/0:50
Distance/Time
To Go:
Arrived

Flight Plot

Page will automatically refresh every two minutes.

Flight plan parsing failed; only flown route is shown


Map Options




Map Legend


Flown Route
Filed Route
Departure Airport
Arrival Airport
Navaid (VOR, NDB)
Fix

Horizontal Profiles

Position Reports

Time Latitude Longitude Heading Altitude Ground
Speed
04-May-20 16:28 33.436850 -112.009423 90 1143ft 0kts
04-May-20 16:29 33.436850 -112.009423 90 1143ft 0kts
04-May-20 16:30 33.436850 -112.009423 90 1143ft 0kts
04-May-20 16:31 33.436850 -112.009423 90 1143ft 0kts
04-May-20 16:32 33.436850 -112.009423 90 1143ft 0kts
04-May-20 16:33 33.436850 -112.009423 90 1143ft 0kts
04-May-20 16:34 33.436850 -112.009423 90 1143ft 0kts
04-May-20 16:35 33.436850 -112.009423 90 1143ft 0kts
04-May-20 16:36 33.436850 -112.009423 90 1143ft 0kts
04-May-20 16:37 33.436850 -112.009423 90 1143ft 0kts
04-May-20 16:38 33.436850 -112.009423 90 1143ft 0kts
04-May-20 16:39 33.436850 -112.009423 90 1143ft 0kts
04-May-20 16:40 33.436850 -112.009423 90 1143ft 0kts
04-May-20 16:41 33.436850 -112.009423 90 1143ft 0kts
04-May-20 16:42 33.436850 -112.009423 90 1143ft 0kts
04-May-20 16:43 33.436850 -112.009423 90 1143ft 0kts
04-May-20 16:44 33.436850 -112.009423 90 1143ft 0kts
04-May-20 16:45 33.436850 -112.009423 90 1143ft 0kts
04-May-20 16:46 33.436850 -112.009423 90 1143ft 0kts
04-May-20 16:47 33.436850 -112.009423 90 1143ft 0kts
04-May-20 16:48 33.436858 -112.009609 102 1143ft 2kts
04-May-20 16:49 33.437428 -112.010011 214 1143ft 2kts
04-May-20 16:50 33.437668 -112.009995 0 1143ft 0kts
04-May-20 16:51 33.437668 -112.009995 0 1143ft 0kts
04-May-20 16:52 33.437668 -112.009995 0 1143ft 0kts
04-May-20 16:53 33.437668 -112.009995 0 1143ft 0kts
04-May-20 16:54 33.438998 -112.008665 90 1143ft 16kts
04-May-20 16:55 33.438987 -112.002557 90 1143ft 24kts
04-May-20 16:56 33.439022 -111.995375 92 1143ft 19kts
04-May-20 16:57 33.439716 -111.991395 90 1143ft 0kts
04-May-20 16:58 33.440736 -111.991184 317 1143ft 10kts
04-May-20 16:59 33.440723 -112.022631 269 1474ft 174kts
04-May-20 17:00 33.428243 -112.085015 248 3459ft 235kts
04-May-20 17:01 33.401449 -112.162425 241 6052ft 271kts
04-May-20 17:02 33.332381 -112.180130 150 9143ft 298kts
04-May-20 17:03 33.252126 -112.153839 204 11317ft 335kts
04-May-20 17:04 33.192918 -112.246452 241 13280ft 366kts
04-May-20 17:05 33.137647 -112.350488 238 16042ft 375kts
04-May-20 17:06 33.080539 -112.456091 238 18530ft 384kts
04-May-20 17:07 33.019948 -112.563490 238 20591ft 397kts
04-May-20 17:08 32.961237 -112.676395 251 22484ft 404kts
04-May-20 17:09 32.938037 -112.808198 262 24200ft 412kts
04-May-20 17:10 32.919654 -112.943992 262 25819ft 419kts
04-May-20 17:11 32.900703 -113.081731 262 27286ft 425kts
04-May-20 17:12 32.881826 -113.222123 262 28669ft 430kts
04-May-20 17:13 32.862917 -113.360505 262 30491ft 422kts
04-May-20 17:14 32.843633 -113.497853 261 31950ft 420kts
04-May-20 17:15 32.824133 -113.634810 261 31975ft 418kts
04-May-20 17:16 32.804839 -113.771342 261 31885ft 418kts
04-May-20 17:17 32.785141 -113.907846 261 31883ft 419kts
04-May-20 17:18 32.774896 -114.045088 270 31881ft 418kts
04-May-20 17:19 32.779477 -114.183140 273 31880ft 417kts
04-May-20 17:20 32.784942 -114.321022 272 31880ft 417kts
04-May-20 17:21 32.806569 -114.455848 286 31880ft 418kts
04-May-20 17:22 32.842833 -114.587057 286 31880ft 417kts
04-May-20 17:23 32.874641 -114.718547 277 31882ft 415kts
04-May-20 17:24 32.876390 -114.856070 268 31883ft 415kts
04-May-20 17:25 32.873459 -114.992980 269 31885ft 415kts
04-May-20 17:26 32.870360 -115.129609 268 30469ft 405kts
04-May-20 17:27 32.866956 -115.260462 268 28452ft 392kts
04-May-20 17:28 32.863687 -115.350337 264 27038ft 386kts
04-May-20 17:29 32.846124 -115.475055 261 25019ft 377kts
04-May-20 17:30 32.826956 -115.595999 260 23084ft 369kts
04-May-20 17:31 32.807316 -115.714598 260 21165ft 361kts
04-May-20 17:32 32.788032 -115.830823 260 19258ft 354kts
04-May-20 17:33 32.777606 -115.945816 266 17409ft 349kts
04-May-20 17:34 32.769520 -116.059933 265 15568ft 343kts
04-May-20 17:35 32.760902 -116.171789 265 13773ft 337kts
04-May-20 17:36 32.752413 -116.281040 265 12552ft 316kts
04-May-20 17:37 32.744515 -116.383968 265 11079ft 311kts
04-May-20 17:38 32.736537 -116.484659 265 10077ft 292kts
04-May-20 17:39 32.727785 -116.579118 264 8934ft 289kts
04-May-20 17:40 32.718734 -116.672881 265 7864ft 281kts
04-May-20 17:41 32.712875 -116.751707 266 6831ft 276kts
04-May-20 17:42 32.704286 -116.829503 255 6008ft 264kts
04-May-20 17:43 32.680171 -116.904676 252 5694ft 228kts
04-May-20 17:44 32.680819 -116.976911 295 4197ft 222kts
04-May-20 17:45 32.697506 -117.041461 286 3219ft 195kts
04-May-20 17:46 32.712029 -117.097620 290 1968ft 175kts
04-May-20 17:48 32.723465 -117.147668 286 923ft 142kts
04-May-20 17:49 32.733722 -117.190362 287 23ft 73kts
04-May-20 17:50 32.733897 -117.194989 190 23ft 0kts
04-May-20 17:51 32.733366 -117.195962 199 23ft 8kts
04-May-20 17:52 32.733305 -117.195989 199 23ft 0kts
04-May-20 17:53 32.733305 -117.195989 199 23ft 0kts
04-May-20 17:54 32.733305 -117.195989 199 23ft 0kts
04-May-20 17:55 32.733305 -117.195989 199 23ft 0kts
04-May-20 17:56 32.733305 -117.195989 199 23ft 0kts

Navigation Log

Ident Type
Flight plan parsing failed, navigation log unavailable